createdAt,value
2023-01-18T00:00:45.778Z,95603.00
2023-01-18T00:03:35.280Z,95610.00
2023-01-18T00:06:23.130Z,95619.00
2023-01-18T00:09:10.966Z,95620.00
2023-01-18T00:11:58.783Z,95622.00
2023-01-18T00:14:46.786Z,95628.00
2023-01-18T00:17:34.479Z,95630.00
2023-01-18T00:20:25.623Z,95626.00
2023-01-18T00:23:13.461Z,95630.00
2023-01-18T00:26:07.381Z,95637.00
2023-01-18T00:28:57.418Z,95637.00
2023-01-18T00:31:45.710Z,95639.00
2023-01-18T00:34:33.639Z,95634.00
2023-01-18T00:37:21.378Z,95627.00
2023-01-18T00:40:10.939Z,95621.00
2023-01-18T00:43:17.260Z,95614.00
2023-01-18T00:46:23.132Z,95623.00
2023-01-18T00:49:10.800Z,95624.00
2023-01-18T00:51:58.903Z,95610.00
2023-01-18T00:54:46.778Z,95628.00
2023-01-18T00:57:34.383Z,95624.00
2023-01-18T01:00:23.794Z,95629.00
2023-01-18T01:03:14.012Z,95636.00
2023-01-18T01:06:20.582Z,95632.00
2023-01-18T01:09:09.269Z,95638.00
2023-01-18T01:12:18.343Z,95641.00
2023-01-18T01:15:25.399Z,95633.00
2023-01-18T01:18:33.118Z,95624.00
2023-01-18T01:21:39.598Z,95623.00
2023-01-18T01:24:45.807Z,95633.00
2023-01-18T01:27:35.833Z,95642.00
2023-01-18T01:30:25.176Z,95643.00
2023-01-18T01:33:13.086Z,95636.00
2023-01-18T01:36:07.960Z,95632.00
2023-01-18T01:38:56.140Z,95621.00
2023-01-18T01:41:43.813Z,95616.00
2023-01-18T01:44:34.626Z,95607.00
2023-01-18T01:47:34.364Z,95610.00
2023-01-18T01:50:41.515Z,95604.00
2023-01-18T01:53:29.349Z,95604.00
2023-01-18T01:56:20.518Z,95595.00
2023-01-18T01:59:10.581Z,95600.00
2023-01-18T02:01:59.152Z,95606.00
2023-01-18T02:04:53.768Z,95611.00
2023-01-18T02:07:41.698Z,95614.00
2023-01-18T02:10:30.742Z,95612.00
2023-01-18T02:13:21.173Z,95617.00
2023-01-18T02:16:23.204Z,95624.00
2023-01-18T02:19:54.648Z,95627.00
2023-01-18T02:22:48.411Z,95637.00
2023-01-18T02:26:21.923Z,95637.00
2023-01-18T02:29:18.350Z,95654.00
2023-01-18T02:32:59.718Z,95666.00
2023-01-18T02:35:57.551Z,95674.00
2023-01-18T02:38:52.850Z,95674.00
2023-01-18T02:42:10.836Z,95668.00
2023-01-18T02:45:20.568Z,95674.00
2023-01-18T02:48:10.567Z,95670.00
2023-01-18T02:50:58.204Z,95681.00
2023-01-18T02:53:48.238Z,95686.00
2023-01-18T02:56:42.936Z,95679.00
2023-01-18T02:59:42.121Z,95679.00
2023-01-18T03:02:29.642Z,95692.00
2023-01-18T03:05:19.058Z,95686.00
2023-01-18T03:08:18.685Z,95696.00
2023-01-18T03:11:38.234Z,95695.00
2023-01-18T03:14:42.235Z,95698.00
2023-01-18T03:17:51.661Z,95703.00
2023-01-18T03:20:46.885Z,95711.00
2023-01-18T03:23:42.952Z,95711.00
2023-01-18T03:26:34.684Z,95717.00
2023-01-18T03:29:43.078Z,95719.00
2023-01-18T03:32:52.875Z,95705.00
2023-01-18T03:35:41.609Z,95716.00
2023-01-18T03:38:32.043Z,95707.00
2023-01-18T03:41:23.179Z,95714.00
2023-01-18T03:44:41.707Z,95708.00
2023-01-18T03:47:30.236Z,95722.00
2023-01-18T03:50:19.091Z,95718.00
2023-01-18T03:53:17.649Z,95719.00
2023-01-18T03:56:32.645Z,95724.00
2023-01-18T03:59:21.746Z,95722.00
2023-01-18T04:02:10.168Z,95725.00
2023-01-18T04:04:58.569Z,95731.00
2023-01-18T04:07:46.694Z,95741.00
2023-01-18T04:10:34.291Z,95754.00
2023-01-18T04:13:21.815Z,95751.00
2023-01-18T04:16:09.575Z,95767.00
2023-01-18T04:18:57.318Z,95769.00
2023-01-18T04:21:45.251Z,95772.00
2023-01-18T04:24:32.844Z,95775.00
2023-01-18T04:27:22.880Z,95777.00
2023-01-18T04:30:12.859Z,95783.00
2023-01-18T04:33:00.867Z,95785.00
2023-01-18T04:35:50.431Z,95779.00
2023-01-18T04:38:37.973Z,95781.00
2023-01-18T04:41:26.234Z,95785.00
2023-01-18T04:44:13.832Z,95786.00
2023-01-18T04:47:01.528Z,95786.00
2023-01-18T04:49:49.273Z,95792.00
2023-01-18T04:52:36.872Z,95805.00
2023-01-18T04:55:24.662Z,95797.00
2023-01-18T04:58:12.625Z,95796.00
2023-01-18T05:01:09.545Z,95793.00
2023-01-18T05:03:57.241Z,95791.00
2023-01-18T05:06:47.924Z,95798.00
2023-01-18T05:09:35.439Z,95794.00
2023-01-18T05:12:23.638Z,95787.00
2023-01-18T05:15:11.764Z,95800.00
2023-01-18T05:17:59.415Z,95798.00
2023-01-18T05:20:48.748Z,95797.00
2023-01-18T05:23:36.566Z,95804.00
2023-01-18T05:26:25.024Z,95820.00
2023-01-18T05:29:12.553Z,95823.00
2023-01-18T05:32:00.164Z,95827.00
2023-01-18T05:34:47.696Z,95826.00
2023-01-18T05:37:35.349Z,95833.00
2023-01-18T05:40:23.328Z,95846.00
2023-01-18T05:43:12.683Z,95849.00
2023-01-18T05:46:00.232Z,95853.00
2023-01-18T05:48:47.906Z,95860.00
2023-01-18T05:51:36.523Z,95852.00
2023-01-18T05:54:24.150Z,95859.00
2023-01-18T05:57:11.667Z,95856.00
2023-01-18T05:59:59.912Z,95863.00
2023-01-18T06:02:47.685Z,95865.00
2023-01-18T06:05:35.427Z,95872.00
2023-01-18T06:08:23.094Z,95879.00
2023-01-18T06:11:11.290Z,95877.00
2023-01-18T06:13:58.884Z,95878.00
2023-01-18T06:16:46.510Z,95885.00
2023-01-18T06:19:34.108Z,95890.00
2023-01-18T06:22:21.779Z,95893.00
2023-01-18T06:25:10.348Z,95896.00
2023-01-18T06:27:57.990Z,95910.00
2023-01-18T06:30:48.070Z,95918.00
2023-01-18T06:33:36.387Z,95918.00
2023-01-18T06:36:24.052Z,95919.00
2023-01-18T06:39:12.162Z,95924.00
2023-01-18T06:41:59.743Z,95929.00
2023-01-18T06:44:47.531Z,95940.00
2023-01-18T06:47:35.279Z,95942.00
2023-01-18T06:50:23.333Z,95949.00
2023-01-18T06:53:11.084Z,95951.00
2023-01-18T06:56:05.003Z,95961.00
2023-01-18T06:58:55.459Z,95961.00
2023-01-18T07:01:43.170Z,95965.00
2023-01-18T07:04:38.117Z,95971.00
2023-01-18T07:07:26.395Z,95974.00
2023-01-18T07:10:16.367Z,95984.00
2023-01-18T07:13:05.114Z,95975.00
2023-01-18T07:15:59.399Z,95983.00
2023-01-18T07:18:50.314Z,95991.00
2023-01-18T07:21:38.088Z,95987.00
2023-01-18T07:24:25.741Z,95984.00
2023-01-18T07:27:13.259Z,95991.00
2023-01-18T07:30:00.723Z,95989.00
2023-01-18T07:32:53.809Z,95995.00
2023-01-18T07:35:41.302Z,95990.00
2023-01-18T07:38:31.944Z,95995.00
2023-01-18T07:41:20.177Z,96002.00
2023-01-18T07:44:09.823Z,96004.00
2023-01-18T07:46:57.887Z,96010.00
2023-01-18T07:49:45.297Z,96014.00
2023-01-18T07:52:32.815Z,96019.00
2023-01-18T07:55:21.861Z,96016.00
2023-01-18T07:58:10.644Z,96024.00
2023-01-18T08:01:09.746Z,96021.00
2023-01-18T08:03:57.404Z,96019.00
2023-01-18T08:06:45.956Z,96020.00
2023-01-18T08:09:34.212Z,96037.00
2023-01-18T08:12:22.230Z,96037.00
2023-01-18T08:15:10.439Z,96039.00
2023-01-18T08:18:02.429Z,96049.00
2023-01-18T08:20:50.483Z,96068.00
2023-01-18T08:23:39.404Z,96071.00
2023-01-18T08:26:26.944Z,96079.00
2023-01-18T08:29:14.494Z,96083.00
2023-01-18T08:32:02.783Z,96095.00
2023-01-18T08:34:50.788Z,96093.00
2023-01-18T08:37:38.976Z,96096.00
2023-01-18T08:40:28.150Z,96118.00
2023-01-18T08:43:15.673Z,96112.00
2023-01-18T08:46:03.330Z,96117.00
2023-01-18T08:49:00.129Z,96126.00
2023-01-18T08:51:47.603Z,96138.00
2023-01-18T08:54:35.109Z,96142.00
2023-01-18T08:57:23.264Z,96140.00
2023-01-18T09:00:11.787Z,96140.00
2023-01-18T09:03:02.996Z,96146.00
2023-01-18T09:05:51.331Z,96146.00
2023-01-18T09:08:38.853Z,96162.00
2023-01-18T09:11:26.439Z,96161.00
2023-01-18T09:14:15.456Z,96169.00
2023-01-18T09:17:03.881Z,96182.00
2023-01-18T09:19:51.473Z,96184.00
2023-01-18T09:22:40.015Z,96179.00
2023-01-18T09:25:27.476Z,96184.00
2023-01-18T09:28:17.174Z,96193.00
2023-01-18T09:31:10.625Z,96201.00
2023-01-18T09:34:19.244Z,96205.00
2023-01-18T09:37:06.844Z,96209.00
2023-01-18T09:39:54.332Z,96217.00
2023-01-18T09:42:45.920Z,96221.00
2023-01-18T09:45:35.635Z,96227.00
2023-01-18T09:48:38.297Z,96241.00
2023-01-18T09:51:28.906Z,96242.00
2023-01-18T09:54:54.218Z,96247.00
2023-01-18T09:58:19.388Z,96250.00
2023-01-18T10:01:22.445Z,96243.00
2023-01-18T10:04:42.234Z,96248.00
2023-01-18T10:07:36.242Z,96262.00
2023-01-18T10:10:23.985Z,96258.00
2023-01-18T10:13:28.144Z,96258.00
2023-01-18T10:16:16.084Z,96264.00
2023-01-18T10:19:04.401Z,96258.00
2023-01-18T10:22:27.613Z,96260.00
2023-01-18T10:25:41.936Z,96256.00
2023-01-18T10:28:56.466Z,96253.00
2023-01-18T10:32:05.154Z,96253.00
2023-01-18T10:34:52.991Z,96251.00
2023-01-18T10:37:46.759Z,96241.00
2023-01-18T10:40:36.495Z,96248.00
2023-01-18T10:43:27.379Z,96250.00
2023-01-18T10:46:20.016Z,96255.00
2023-01-18T10:49:28.574Z,96252.00
2023-01-18T10:52:32.701Z,96248.00
2023-01-18T10:55:21.155Z,96237.00
2023-01-18T10:58:14.566Z,96251.00
2023-01-18T11:01:04.012Z,96248.00
2023-01-18T11:04:22.008Z,96245.00
2023-01-18T11:07:09.743Z,96241.00
2023-01-18T11:10:02.213Z,96236.00
2023-01-18T11:12:52.331Z,96236.00
2023-01-18T11:15:41.500Z,96242.00
2023-01-18T11:18:29.035Z,96247.00
2023-01-18T11:21:19.229Z,96246.00
2023-01-18T11:24:25.083Z,96254.00
2023-01-18T11:27:23.403Z,96257.00
2023-01-18T11:30:25.986Z,96263.00
2023-01-18T11:33:24.442Z,96267.00
2023-01-18T11:36:16.399Z,96266.00
2023-01-18T11:39:25.112Z,96274.00
2023-01-18T11:42:27.714Z,96278.00
2023-01-18T11:45:41.029Z,96277.00
2023-01-18T11:48:54.943Z,96278.00
2023-01-18T11:51:56.308Z,96291.00
2023-01-18T11:54:58.743Z,96283.00
2023-01-18T11:57:46.678Z,96275.00
2023-01-18T12:00:59.325Z,96268.00
2023-01-18T12:03:59.428Z,96289.00
2023-01-18T12:07:07.998Z,96280.00
2023-01-18T12:10:01.743Z,96277.00
2023-01-18T12:13:01.242Z,96280.00
2023-01-18T12:16:03.234Z,96287.00
2023-01-18T12:19:27.256Z,96296.00
2023-01-18T12:22:56.344Z,96302.00
2023-01-18T12:26:11.283Z,96305.00
2023-01-18T12:29:50.635Z,96310.00
2023-01-18T12:33:16.226Z,96323.00
2023-01-18T12:36:19.390Z,96318.00
2023-01-18T12:39:45.868Z,96316.00
2023-01-18T12:42:57.966Z,96315.00
2023-01-18T12:46:09.217Z,96321.00
2023-01-18T12:49:23.366Z,96331.00
2023-01-18T12:52:19.396Z,96332.00
2023-01-18T12:55:16.622Z,96347.00
2023-01-18T12:58:05.378Z,96342.00
2023-01-18T13:00:59.724Z,96349.00
2023-01-18T13:03:51.746Z,96345.00
2023-01-18T13:06:42.735Z,96348.00
2023-01-18T13:09:40.824Z,96349.00
2023-01-18T13:12:29.277Z,96346.00
2023-01-18T13:15:53.651Z,96351.00
2023-01-18T13:18:57.071Z,96350.00
2023-01-18T13:21:53.556Z,96352.00
2023-01-18T13:25:09.734Z,96360.00
2023-01-18T13:28:18.278Z,96367.00
2023-01-18T13:31:06.503Z,96378.00
2023-01-18T13:33:58.242Z,96383.00
2023-01-18T13:36:47.022Z,96383.00
2023-01-18T13:39:47.321Z,96382.00
2023-01-18T13:42:38.387Z,96395.00
2023-01-18T13:45:30.579Z,96393.00
2023-01-18T13:48:54.466Z,96393.00
2023-01-18T13:51:44.687Z,96407.00
2023-01-18T13:54:32.134Z,96400.00
2023-01-18T13:57:21.560Z,96415.00
2023-01-18T14:00:26.761Z,96409.00
2023-01-18T14:03:27.404Z,96410.00
2023-01-18T14:06:32.075Z,96414.00
2023-01-18T14:09:44.799Z,96417.00
2023-01-18T14:12:51.395Z,96416.00
2023-01-18T14:16:00.549Z,96416.00
2023-01-18T14:19:20.976Z,96412.00
2023-01-18T14:22:56.353Z,96421.00
2023-01-18T14:26:14.199Z,96417.00
2023-01-18T14:29:08.109Z,96415.00
2023-01-18T14:31:58.081Z,96418.00
2023-01-18T14:34:45.530Z,96412.00
2023-01-18T14:37:35.621Z,96420.00
2023-01-18T14:40:29.234Z,96427.00
2023-01-18T14:43:27.301Z,96427.00
2023-01-18T14:46:23.274Z,96429.00
2023-01-18T14:49:18.561Z,96432.00
2023-01-18T14:52:08.657Z,96442.00
2023-01-18T14:54:59.493Z,96446.00
2023-01-18T14:57:53.706Z,96452.00
2023-01-18T15:00:52.435Z,96453.00
2023-01-18T15:03:40.104Z,96458.00
2023-01-18T15:06:46.825Z,96459.00
2023-01-18T15:09:39.713Z,96456.00
2023-01-18T15:12:33.690Z,96471.00
2023-01-18T15:15:31.636Z,96474.00
2023-01-18T15:18:26.777Z,96486.00
2023-01-18T15:21:25.231Z,96498.00
2023-01-18T15:24:25.072Z,96500.00
2023-01-18T15:27:20.756Z,96507.00
2023-01-18T15:30:14.059Z,96517.00
2023-01-18T15:33:02.837Z,96520.00
2023-01-18T15:35:59.583Z,96526.00
2023-01-18T15:38:47.224Z,96536.00
2023-01-18T15:41:35.521Z,96551.00
2023-01-18T15:44:48.723Z,96558.00
2023-01-18T15:47:39.285Z,96562.00
2023-01-18T15:51:05.045Z,96576.00
2023-01-18T15:53:56.596Z,96572.00
2023-01-18T15:56:46.095Z,96574.00
2023-01-18T15:59:34.335Z,96581.00
2023-01-18T16:02:23.988Z,96589.00
2023-01-18T16:05:14.988Z,96601.00
2023-01-18T16:08:23.059Z,96599.00
2023-01-18T16:11:52.102Z,96612.00
2023-01-18T16:14:46.605Z,96604.00
2023-01-18T16:17:36.428Z,96614.00
2023-01-18T16:20:24.430Z,96627.00
2023-01-18T16:23:22.465Z,96633.00
2023-01-18T16:26:14.804Z,96636.00
2023-01-18T16:29:10.506Z,96639.00
2023-01-18T16:32:25.729Z,96639.00
2023-01-18T16:35:18.090Z,96640.00
2023-01-18T16:38:11.190Z,96649.00
2023-01-18T16:40:59.689Z,96652.00
2023-01-18T16:43:48.328Z,96651.00
2023-01-18T16:46:36.611Z,96653.00
2023-01-18T16:49:27.208Z,96662.00
2023-01-18T16:52:17.410Z,96665.00
2023-01-18T16:55:05.730Z,96677.00
2023-01-18T16:57:54.351Z,96677.00
2023-01-18T17:01:06.506Z,96690.00
2023-01-18T17:03:54.289Z,96690.00
2023-01-18T17:06:44.463Z,96701.00
2023-01-18T17:09:47.374Z,96706.00
2023-01-18T17:12:35.760Z,96701.00
2023-01-18T17:15:23.340Z,96715.00
2023-01-18T17:18:25.801Z,96724.00
2023-01-18T17:21:14.012Z,96735.00
2023-01-18T17:24:01.573Z,96734.00
2023-01-18T17:26:49.361Z,96742.00
2023-01-18T17:29:36.913Z,96747.00
2023-01-18T17:32:24.422Z,96759.00
2023-01-18T17:35:11.978Z,96762.00
2023-01-18T17:38:05.903Z,96780.00
2023-01-18T17:40:59.531Z,96783.00
2023-01-18T17:43:47.200Z,96799.00
2023-01-18T17:46:35.676Z,96802.00
2023-01-18T17:49:23.221Z,96808.00
2023-01-18T17:52:10.820Z,96824.00
2023-01-18T17:54:58.525Z,96834.00
2023-01-18T17:57:49.100Z,96843.00
2023-01-18T18:00:37.110Z,96854.00
2023-01-18T18:03:24.607Z,96862.00
2023-01-18T18:06:12.800Z,96883.00
2023-01-18T18:09:04.099Z,96889.00
2023-01-18T18:11:51.926Z,96899.00
2023-01-18T18:14:40.362Z,96891.00
2023-01-18T18:17:31.331Z,96910.00
2023-01-18T18:20:19.955Z,96907.00
2023-01-18T18:23:10.296Z,96913.00
2023-01-18T18:25:59.548Z,96910.00
2023-01-18T18:28:47.083Z,96910.00
2023-01-18T18:31:34.667Z,96902.00
2023-01-18T18:34:22.251Z,96903.00
2023-01-18T18:37:09.983Z,96899.00
2023-01-18T18:39:57.452Z,96899.00
2023-01-18T18:42:49.937Z,96901.00
2023-01-18T18:45:48.031Z,96900.00
2023-01-18T18:48:35.656Z,96906.00
2023-01-18T18:51:23.786Z,96910.00
2023-01-18T18:54:12.056Z,96920.00
2023-01-18T18:57:00.599Z,96924.00
2023-01-18T18:59:48.103Z,96922.00
2023-01-18T19:02:35.972Z,96932.00
2023-01-18T19:05:23.508Z,96929.00
2023-01-18T19:08:11.522Z,96941.00
2023-01-18T19:10:59.094Z,96951.00
2023-01-18T19:13:49.433Z,96951.00
2023-01-18T19:16:38.231Z,96968.00
2023-01-18T19:19:26.936Z,96978.00
2023-01-18T19:22:14.662Z,96979.00
2023-01-18T19:25:04.029Z,96981.00
2023-01-18T19:27:51.813Z,96993.00
2023-01-18T19:30:41.714Z,97012.00
2023-01-18T19:33:29.360Z,97025.00
2023-01-18T19:36:17.161Z,97025.00
2023-01-18T19:39:09.287Z,97026.00
2023-01-18T19:42:02.566Z,97027.00
2023-01-18T19:44:51.946Z,97037.00
2023-01-18T19:47:42.144Z,97047.00
2023-01-18T19:50:30.991Z,97052.00
2023-01-18T19:53:18.758Z,97051.00
2023-01-18T19:56:08.074Z,97056.00
2023-01-18T19:58:55.609Z,97061.00
2023-01-18T20:01:44.702Z,97071.00
2023-01-18T20:04:33.979Z,97069.00
2023-01-18T20:07:21.576Z,97073.00
2023-01-18T20:10:10.418Z,97070.00
2023-01-18T20:12:59.221Z,97085.00
2023-01-18T20:15:50.735Z,97088.00
2023-01-18T20:18:38.774Z,97097.00
2023-01-18T20:21:26.359Z,97081.00
2023-01-18T20:24:13.923Z,97091.00
2023-01-18T20:27:15.293Z,97086.00
2023-01-18T20:30:05.701Z,97092.00
2023-01-18T20:32:53.257Z,97093.00
2023-01-18T20:35:40.722Z,97088.00
2023-01-18T20:38:28.264Z,97093.00
2023-01-18T20:41:16.054Z,97093.00
2023-01-18T20:44:03.538Z,97085.00
2023-01-18T20:46:55.034Z,97084.00
2023-01-18T20:49:42.598Z,97084.00
2023-01-18T20:52:30.281Z,97086.00
2023-01-18T20:55:18.893Z,97091.00
2023-01-18T20:58:06.438Z,97092.00
2023-01-18T21:00:54.773Z,97105.00
2023-01-18T21:03:52.619Z,97107.00
2023-01-18T21:06:44.876Z,97106.00
2023-01-18T21:09:33.354Z,97097.00
2023-01-18T21:12:21.274Z,97100.00
2023-01-18T21:15:09.594Z,97096.00
2023-01-18T21:17:57.532Z,97111.00
2023-01-18T21:21:00.912Z,97119.00
2023-01-18T21:23:48.759Z,97122.00
2023-01-18T21:26:37.800Z,97120.00
2023-01-18T21:29:25.445Z,97130.00
2023-01-18T21:32:12.915Z,97125.00
2023-01-18T21:35:00.537Z,97120.00
2023-01-18T21:37:48.183Z,97121.00
2023-01-18T21:40:35.736Z,97127.00
2023-01-18T21:43:41.949Z,97123.00
2023-01-18T21:46:29.964Z,97128.00
2023-01-18T21:50:00.927Z,97124.00
2023-01-18T21:53:02.143Z,97131.00
2023-01-18T21:55:52.298Z,97135.00
2023-01-18T21:58:56.066Z,97132.00
2023-01-18T22:01:47.277Z,97127.00
2023-01-18T22:04:53.512Z,97142.00
2023-01-18T22:07:41.024Z,97156.00
2023-01-18T22:10:28.493Z,97164.00
2023-01-18T22:13:16.187Z,97181.00
2023-01-18T22:16:06.649Z,97192.00
2023-01-18T22:18:54.165Z,97197.00
2023-01-18T22:21:42.811Z,97201.00
2023-01-18T22:24:30.546Z,97203.00
2023-01-18T22:27:18.028Z,97195.00
2023-01-18T22:30:06.235Z,97195.00
2023-01-18T22:32:53.714Z,97203.00
2023-01-18T22:35:41.989Z,97212.00
2023-01-18T22:38:29.475Z,97222.00
2023-01-18T22:41:27.864Z,97225.00
2023-01-18T22:44:17.176Z,97231.00
2023-01-18T22:47:04.808Z,97232.00
2023-01-18T22:49:52.362Z,97237.00
2023-01-18T22:52:39.907Z,97239.00
2023-01-18T22:55:27.459Z,97244.00
2023-01-18T22:58:15.904Z,97243.00
2023-01-18T23:01:04.643Z,97236.00
2023-01-18T23:03:55.592Z,97232.00
2023-01-18T23:06:46.834Z,97230.00
2023-01-18T23:09:34.488Z,97236.00
2023-01-18T23:12:23.258Z,97230.00
2023-01-18T23:15:31.149Z,97230.00
2023-01-18T23:18:18.767Z,97223.00
2023-01-18T23:21:06.360Z,97220.00
2023-01-18T23:23:53.919Z,97223.00
2023-01-18T23:26:41.509Z,97230.00
2023-01-18T23:29:29.011Z,97234.00
2023-01-18T23:32:16.535Z,97248.00
2023-01-18T23:35:05.090Z,97240.00
2023-01-18T23:37:52.554Z,97243.00
2023-01-18T23:40:58.880Z,97252.00
2023-01-18T23:44:04.936Z,97263.00
2023-01-18T23:47:11.413Z,97268.00
2023-01-18T23:50:17.422Z,97270.00
2023-01-18T23:53:23.625Z,97282.00
2023-01-18T23:56:11.159Z,97283.00
2023-01-18T23:58:58.893Z,97277.00
